createdAt,value
2018-12-31T00:02:06.170Z,9.10
2018-12-31T00:04:36.692Z,9.20
2018-12-31T00:07:08.334Z,9.20
2018-12-31T00:09:39.168Z,9.20
2018-12-31T00:12:14.853Z,9.20
2018-12-31T00:14:47.572Z,9.20
2018-12-31T00:17:17.894Z,9.20
2018-12-31T00:19:48.955Z,9.20
2018-12-31T00:22:19.287Z,9.30
2018-12-31T00:24:54.121Z,9.20
2018-12-31T00:27:24.530Z,9.30
2018-12-31T00:29:54.962Z,9.20
2018-12-31T00:32:25.847Z,9.20
2018-12-31T00:34:59.252Z,9.10
2018-12-31T00:37:32.816Z,9.10
2018-12-31T00:40:03.082Z,9.20
2018-12-31T00:42:33.594Z,9.20
2018-12-31T00:45:04.937Z,9.20
2018-12-31T00:47:35.280Z,9.20
2018-12-31T00:50:05.714Z,9.10
2018-12-31T00:52:36.108Z,9.20
2018-12-31T00:55:09.654Z,9.20
2018-12-31T00:57:40.053Z,9.20
2018-12-31T01:00:10.498Z,9.20
2018-12-31T01:02:40.850Z,9.20
2018-12-31T01:05:11.615Z,9.10
2018-12-31T01:07:42.214Z,9.00
2018-12-31T01:10:14.742Z,9.20
2018-12-31T01:12:45.185Z,9.30
2018-12-31T01:15:15.609Z,9.40
2018-12-31T01:17:46.358Z,9.40
2018-12-31T01:20:17.105Z,9.30
2018-12-31T01:22:47.398Z,9.30
2018-12-31T01:25:17.760Z,9.40
2018-12-31T01:27:48.009Z,9.30
2018-12-31T01:30:18.474Z,9.30
2018-12-31T01:32:48.879Z,9.40
2018-12-31T01:35:25.141Z,9.40
2018-12-31T01:37:55.480Z,9.40
2018-12-31T01:40:28.443Z,9.30
2018-12-31T01:42:58.789Z,9.50
2018-12-31T01:45:29.052Z,9.60
2018-12-31T01:47:59.409Z,9.70
2018-12-31T01:50:29.751Z,9.70
2018-12-31T01:53:00.184Z,9.70
2018-12-31T01:55:30.528Z,9.80
2018-12-31T01:58:00.765Z,9.80
2018-12-31T02:00:31.746Z,9.80
2018-12-31T02:03:02.239Z,9.90
2018-12-31T02:05:32.775Z,10.00
2018-12-31T02:08:03.075Z,10.00
2018-12-31T02:10:33.477Z,10.00
2018-12-31T02:13:03.666Z,10.00
2018-12-31T02:15:33.921Z,9.90
2018-12-31T02:18:04.276Z,9.90
2018-12-31T02:20:34.621Z,10.00
2018-12-31T02:23:04.864Z,10.00
2018-12-31T02:25:35.186Z,10.00
2018-12-31T02:28:05.481Z,9.90
2018-12-31T02:30:35.795Z,9.70
2018-12-31T02:33:06.123Z,9.60
2018-12-31T02:35:36.351Z,9.70
2018-12-31T02:38:06.640Z,9.80
2018-12-31T02:40:36.831Z,9.80
2018-12-31T02:43:07.075Z,9.80
2018-12-31T02:45:37.347Z,9.80
2018-12-31T02:48:07.543Z,9.90
2018-12-31T02:50:38.553Z,9.90
2018-12-31T02:53:08.800Z,10.00
2018-12-31T02:55:39.068Z,10.00
2018-12-31T02:58:09.259Z,10.10
2018-12-31T03:00:39.804Z,10.10
2018-12-31T03:03:10.087Z,10.10
2018-12-31T03:05:43.251Z,10.00
2018-12-31T03:08:15.269Z,10.10
2018-12-31T03:10:45.470Z,10.10
2018-12-31T03:13:15.787Z,10.00
2018-12-31T03:15:46.490Z,10.00
2018-12-31T03:18:16.671Z,9.90
2018-12-31T03:20:49.043Z,10.00
2018-12-31T03:23:19.357Z,10.00
2018-12-31T03:25:49.588Z,10.00
2018-12-31T03:28:19.846Z,10.10
2018-12-31T03:30:50.031Z,10.20
2018-12-31T03:33:20.319Z,10.10
2018-12-31T03:35:50.600Z,10.10
2018-12-31T03:38:20.803Z,10.10
2018-12-31T03:40:51.152Z,10.10
2018-12-31T03:43:21.327Z,10.10
2018-12-31T03:45:51.562Z,10.10
2018-12-31T03:48:21.822Z,10.10
2018-12-31T03:50:51.974Z,10.10
2018-12-31T03:53:22.288Z,10.10
2018-12-31T03:55:52.579Z,10.10
2018-12-31T03:58:22.790Z,10.20
2018-12-31T04:00:53.060Z,10.10
2018-12-31T04:03:23.354Z,10.10
2018-12-31T04:05:53.709Z,10.20
2018-12-31T04:08:24.013Z,10.20
2018-12-31T04:10:54.174Z,10.20
2018-12-31T04:13:24.363Z,10.20
2018-12-31T04:15:54.534Z,10.30
2018-12-31T04:18:24.772Z,10.30
2018-12-31T04:20:55.034Z,10.40
2018-12-31T04:23:26.309Z,10.40
2018-12-31T04:25:56.587Z,10.30
2018-12-31T04:28:26.814Z,10.30
2018-12-31T04:30:57.206Z,10.40
2018-12-31T04:33:27.410Z,10.40
2018-12-31T04:35:57.660Z,10.50
2018-12-31T04:38:28.031Z,10.50
2018-12-31T04:40:58.225Z,10.50
2018-12-31T04:43:28.517Z,10.40
2018-12-31T04:45:58.800Z,10.40
2018-12-31T04:48:29.125Z,10.40
2018-12-31T04:50:59.467Z,10.30
2018-12-31T04:53:29.657Z,10.30
2018-12-31T04:56:00.054Z,10.10
2018-12-31T04:58:30.343Z,10.30
2018-12-31T05:01:00.596Z,10.30
2018-12-31T05:03:30.895Z,10.40
2018-12-31T05:06:01.292Z,10.40
2018-12-31T05:08:31.490Z,10.40
2018-12-31T05:11:01.715Z,10.40
2018-12-31T05:13:31.998Z,10.40
2018-12-31T05:16:02.298Z,10.40
2018-12-31T05:18:32.603Z,10.50
2018-12-31T05:21:02.906Z,10.50
2018-12-31T05:23:33.266Z,10.50
2018-12-31T05:26:03.625Z,10.50
2018-12-31T05:28:33.885Z,10.50
2018-12-31T05:31:04.153Z,10.60
2018-12-31T05:33:34.435Z,10.60
2018-12-31T05:36:04.686Z,10.60
2018-12-31T05:38:34.891Z,10.60
2018-12-31T05:41:05.259Z,10.60
2018-12-31T05:43:35.537Z,10.60
2018-12-31T05:46:05.833Z,10.60
2018-12-31T05:48:36.096Z,10.70
2018-12-31T05:51:06.442Z,10.70
2018-12-31T05:53:36.679Z,10.60
2018-12-31T05:56:07.072Z,10.60
2018-12-31T05:58:37.295Z,10.60
2018-12-31T06:01:07.804Z,10.60
2018-12-31T06:03:38.029Z,10.60
2018-12-31T06:06:08.394Z,10.60
2018-12-31T06:08:38.842Z,10.60
2018-12-31T06:11:09.013Z,10.60
2018-12-31T06:13:39.304Z,10.50
2018-12-31T06:16:09.549Z,10.50
2018-12-31T06:18:39.880Z,10.40
2018-12-31T06:21:10.143Z,10.40
2018-12-31T06:23:40.416Z,10.30
2018-12-31T06:26:10.677Z,10.30
2018-12-31T06:28:41.081Z,10.30
2018-12-31T06:31:11.280Z,10.30
2018-12-31T06:33:41.522Z,10.10
2018-12-31T06:36:11.853Z,9.90
2018-12-31T06:38:42.201Z,9.90
2018-12-31T06:41:12.450Z,9.80
2018-12-31T06:43:42.780Z,9.70
2018-12-31T06:46:13.066Z,9.80
2018-12-31T06:48:43.310Z,9.80
2018-12-31T06:51:13.581Z,9.80
2018-12-31T06:53:43.782Z,9.80
2018-12-31T06:56:13.994Z,9.80
2018-12-31T06:58:44.265Z,9.80
2018-12-31T07:01:14.478Z,9.70
2018-12-31T07:03:44.605Z,9.70
2018-12-31T07:06:14.752Z,9.70
2018-12-31T07:08:44.903Z,9.80
2018-12-31T07:11:15.087Z,9.70
2018-12-31T07:13:45.247Z,9.70
2018-12-31T07:16:15.489Z,9.70
2018-12-31T07:18:45.817Z,9.70
2018-12-31T07:21:16.013Z,9.80
2018-12-31T07:23:46.243Z,9.70
2018-12-31T07:26:16.412Z,9.80
2018-12-31T07:28:46.687Z,9.70
2018-12-31T07:31:17.077Z,9.80
2018-12-31T07:33:47.430Z,9.80
2018-12-31T07:36:18.204Z,9.80
2018-12-31T07:38:50.517Z,9.80
2018-12-31T07:41:21.119Z,9.80
2018-12-31T07:43:51.669Z,9.80
2018-12-31T07:46:22.143Z,9.80
2018-12-31T07:48:52.568Z,9.80
2018-12-31T07:51:22.984Z,9.80
2018-12-31T07:53:53.688Z,9.80
2018-12-31T07:56:24.437Z,9.80
2018-12-31T07:58:54.793Z,9.70
2018-12-31T08:01:25.323Z,9.70
2018-12-31T08:03:56.112Z,9.70
2018-12-31T08:06:26.785Z,9.70
2018-12-31T08:08:57.245Z,9.80
2018-12-31T08:11:27.941Z,9.80
2018-12-31T08:13:58.689Z,9.80
2018-12-31T08:16:29.507Z,9.80
2018-12-31T08:19:00.078Z,9.90
2018-12-31T08:21:30.977Z,9.90
2018-12-31T08:24:01.603Z,9.90
2018-12-31T08:26:32.272Z,9.90
2018-12-31T08:29:03.002Z,9.90
2018-12-31T08:31:33.452Z,9.90
2018-12-31T08:34:03.915Z,10.00
2018-12-31T08:36:34.358Z,10.00
2018-12-31T08:39:07.050Z,10.00
2018-12-31T08:41:37.431Z,9.90
2018-12-31T08:44:08.068Z,10.00
2018-12-31T08:46:38.656Z,10.00
2018-12-31T08:49:09.277Z,10.00
2018-12-31T08:51:39.805Z,10.00
2018-12-31T08:54:10.330Z,10.10
2018-12-31T08:56:41.082Z,10.10
2018-12-31T08:59:11.492Z,10.10
2018-12-31T09:01:41.906Z,10.10
2018-12-31T09:04:12.381Z,10.10
2018-12-31T09:06:43.283Z,10.20
2018-12-31T09:09:13.867Z,10.10
2018-12-31T09:11:44.334Z,10.20
2018-12-31T09:14:14.823Z,10.30
2018-12-31T09:16:45.172Z,10.20
2018-12-31T09:19:15.704Z,10.20
2018-12-31T09:21:46.338Z,10.30
2018-12-31T09:24:17.173Z,10.30
2018-12-31T09:26:47.689Z,10.20
2018-12-31T09:29:18.391Z,10.30
2018-12-31T09:31:49.018Z,10.30
2018-12-31T09:34:19.672Z,10.30
2018-12-31T09:36:50.261Z,10.40
2018-12-31T09:39:21.098Z,10.40
2018-12-31T09:41:53.385Z,10.40
2018-12-31T09:44:24.190Z,10.30
2018-12-31T09:46:54.784Z,10.40
2018-12-31T09:49:25.487Z,10.40
2018-12-31T09:51:56.179Z,10.40
2018-12-31T09:54:26.817Z,10.50
2018-12-31T09:56:57.390Z,10.40
2018-12-31T09:59:27.810Z,10.50
2018-12-31T10:01:58.486Z,10.50
2018-12-31T10:04:28.976Z,10.60
2018-12-31T10:06:59.798Z,10.60
2018-12-31T10:09:30.238Z,10.50
2018-12-31T10:12:01.108Z,10.50
2018-12-31T10:14:31.876Z,10.50
2018-12-31T10:17:02.330Z,10.60
2018-12-31T10:19:32.949Z,10.60
2018-12-31T10:22:03.891Z,10.60
2018-12-31T10:24:34.326Z,10.50
2018-12-31T10:27:04.798Z,10.70
2018-12-31T10:29:36.225Z,10.60
2018-12-31T10:32:07.234Z,10.60
2018-12-31T10:34:37.788Z,10.70
2018-12-31T10:37:08.588Z,10.70
2018-12-31T10:39:39.201Z,10.70
2018-12-31T10:42:09.856Z,10.80
2018-12-31T10:44:40.447Z,10.70
2018-12-31T10:47:11.138Z,10.80
2018-12-31T10:49:41.672Z,10.80
2018-12-31T10:52:12.088Z,10.80
2018-12-31T10:54:43.704Z,10.80
2018-12-31T10:57:14.206Z,10.80
2018-12-31T10:59:44.764Z,10.80
2018-12-31T11:02:15.342Z,10.80
2018-12-31T11:04:45.748Z,10.80
2018-12-31T11:07:16.452Z,10.80
2018-12-31T11:09:56.312Z,10.80
2018-12-31T11:12:28.898Z,10.80
2018-12-31T11:14:59.457Z,10.90
2018-12-31T11:17:29.897Z,10.80
2018-12-31T11:20:00.475Z,10.80
2018-12-31T11:22:31.290Z,10.80
2018-12-31T11:25:01.957Z,10.90
2018-12-31T11:27:32.412Z,10.80
2018-12-31T11:30:02.982Z,10.80
2018-12-31T11:32:33.540Z,10.90
2018-12-31T11:35:04.144Z,10.90
2018-12-31T11:37:35.030Z,10.80
2018-12-31T11:40:06.587Z,10.80
2018-12-31T11:42:37.214Z,10.90
2018-12-31T11:45:08.650Z,11.00
2018-12-31T11:47:39.205Z,11.00
2018-12-31T11:50:09.849Z,10.80
2018-12-31T11:52:40.800Z,10.90
2018-12-31T11:55:11.404Z,10.80
2018-12-31T11:57:42.173Z,10.90
2018-12-31T12:00:12.765Z,10.90
2018-12-31T12:02:43.612Z,10.90
2018-12-31T12:05:14.077Z,10.90
2018-12-31T12:07:44.622Z,10.80
2018-12-31T12:10:14.969Z,10.80
2018-12-31T12:12:45.654Z,10.80
2018-12-31T12:15:16.286Z,10.80
2018-12-31T12:17:46.842Z,10.80
2018-12-31T12:20:17.803Z,10.80
2018-12-31T12:22:48.699Z,10.80
2018-12-31T12:25:19.301Z,10.80
2018-12-31T12:27:49.849Z,10.80
2018-12-31T12:30:20.473Z,10.80
2018-12-31T12:32:51.101Z,10.80
2018-12-31T12:35:21.912Z,10.80
2018-12-31T12:37:52.277Z,10.80
2018-12-31T12:40:22.937Z,10.80
2018-12-31T12:42:54.263Z,10.80
2018-12-31T12:45:24.752Z,10.90
2018-12-31T12:47:55.313Z,10.90
2018-12-31T12:50:25.803Z,10.90
2018-12-31T12:52:56.397Z,10.90
2018-12-31T12:55:27.071Z,10.90
2018-12-31T12:57:57.918Z,10.90
2018-12-31T13:00:28.659Z,10.90
2018-12-31T13:03:06.697Z,11.00
2018-12-31T13:05:37.411Z,11.00
2018-12-31T13:08:08.065Z,11.10
2018-12-31T13:10:38.622Z,11.10
2018-12-31T13:13:09.116Z,11.10
2018-12-31T13:15:39.685Z,11.00
2018-12-31T13:18:10.313Z,11.00
2018-12-31T13:20:40.806Z,11.00
2018-12-31T13:23:11.437Z,11.00
2018-12-31T13:25:42.863Z,11.10
2018-12-31T13:28:13.255Z,11.20
2018-12-31T13:30:43.801Z,11.30
2018-12-31T13:33:14.200Z,11.30
2018-12-31T13:35:44.682Z,11.30
2018-12-31T13:38:15.242Z,11.30
2018-12-31T13:40:48.461Z,11.30
2018-12-31T13:43:18.803Z,11.30
2018-12-31T13:45:49.388Z,11.30
2018-12-31T13:48:20.119Z,11.20
2018-12-31T13:50:50.816Z,11.20
2018-12-31T13:53:21.217Z,11.20
2018-12-31T13:55:51.915Z,11.30
2018-12-31T13:58:22.937Z,11.20
2018-12-31T14:00:53.519Z,11.20
2018-12-31T14:03:24.180Z,11.20
2018-12-31T14:05:54.717Z,11.20
2018-12-31T14:08:25.261Z,11.20
2018-12-31T14:10:55.829Z,11.30
2018-12-31T14:13:26.434Z,11.30
2018-12-31T14:15:56.896Z,11.50
2018-12-31T14:18:27.299Z,11.50
2018-12-31T14:20:57.980Z,11.50
2018-12-31T14:23:28.388Z,11.50
2018-12-31T14:25:58.937Z,11.60
2018-12-31T14:28:29.373Z,11.60
2018-12-31T14:30:59.713Z,11.60
2018-12-31T14:33:30.312Z,11.60
2018-12-31T14:36:01.769Z,11.50
2018-12-31T14:38:32.168Z,11.50
2018-12-31T14:41:02.512Z,11.50
2018-12-31T14:43:34.026Z,11.50
2018-12-31T14:46:04.405Z,11.50
2018-12-31T14:48:34.700Z,11.50
2018-12-31T14:51:05.027Z,11.50
2018-12-31T14:53:35.300Z,11.40
2018-12-31T14:56:05.645Z,11.40
2018-12-31T14:58:35.966Z,11.50
2018-12-31T15:01:06.254Z,11.40
2018-12-31T15:03:36.422Z,11.50
2018-12-31T15:06:07.130Z,11.40
2018-12-31T15:08:37.405Z,11.40
2018-12-31T15:11:07.674Z,11.30
2018-12-31T15:13:37.996Z,11.30
2018-12-31T15:16:08.260Z,11.40
2018-12-31T15:18:38.480Z,11.30
2018-12-31T15:21:08.746Z,11.30
2018-12-31T15:23:38.954Z,11.30
2018-12-31T15:26:09.135Z,11.50
2018-12-31T15:28:39.688Z,11.50
2018-12-31T15:31:09.884Z,11.50
2018-12-31T15:33:40.213Z,11.50
2018-12-31T15:36:10.457Z,11.60
2018-12-31T15:38:40.742Z,11.60
2018-12-31T15:41:11.033Z,11.60
2018-12-31T15:43:41.270Z,11.70
2018-12-31T15:46:11.464Z,11.80
2018-12-31T15:48:41.816Z,11.70
2018-12-31T15:51:12.223Z,12.00
2018-12-31T15:53:43.199Z,12.00
2018-12-31T15:56:13.706Z,11.80
2018-12-31T15:58:44.051Z,11.70
2018-12-31T16:01:14.404Z,11.80
2018-12-31T16:03:45.355Z,11.80
2018-12-31T16:06:15.800Z,11.80
2018-12-31T16:08:46.228Z,11.70
2018-12-31T16:11:16.514Z,11.70
2018-12-31T16:13:46.803Z,11.60
2018-12-31T16:16:17.124Z,11.70
2018-12-31T16:18:47.453Z,11.70
2018-12-31T16:21:17.745Z,11.60
2018-12-31T16:23:48.094Z,11.70
2018-12-31T16:26:18.816Z,11.80
2018-12-31T16:28:49.156Z,11.80
2018-12-31T16:31:19.464Z,11.80
2018-12-31T16:33:50.349Z,11.90
2018-12-31T16:36:20.646Z,11.80
2018-12-31T16:38:50.952Z,11.80
2018-12-31T16:41:21.294Z,11.60
2018-12-31T16:43:51.614Z,11.50
2018-12-31T16:46:21.940Z,11.60
2018-12-31T16:48:52.240Z,11.50
2018-12-31T16:51:22.613Z,11.40
2018-12-31T16:53:52.944Z,11.30
2018-12-31T16:56:23.273Z,11.30
2018-12-31T16:58:53.511Z,11.20
2018-12-31T17:01:23.807Z,11.30
2018-12-31T17:03:54.110Z,11.20
2018-12-31T17:06:25.592Z,11.20
2018-12-31T17:08:55.976Z,11.20
2018-12-31T17:11:26.360Z,11.20
2018-12-31T17:13:56.648Z,11.20
2018-12-31T17:16:26.869Z,11.20
2018-12-31T17:18:57.171Z,11.30
2018-12-31T17:21:27.375Z,11.20
2018-12-31T17:23:57.967Z,11.30
2018-12-31T17:26:28.355Z,11.30
2018-12-31T17:28:58.614Z,11.20
2018-12-31T17:31:29.046Z,11.10
2018-12-31T17:33:59.291Z,11.20
2018-12-31T17:36:29.735Z,11.10
2018-12-31T17:38:59.982Z,11.30
2018-12-31T17:41:30.336Z,11.30
2018-12-31T17:44:00.605Z,11.20
2018-12-31T17:46:30.906Z,11.20
2018-12-31T17:49:01.256Z,11.40
2018-12-31T17:51:31.536Z,11.30
2018-12-31T17:54:01.861Z,11.30
2018-12-31T17:56:32.160Z,11.30
2018-12-31T17:59:02.817Z,11.20
2018-12-31T18:01:33.010Z,11.20
2018-12-31T18:04:03.327Z,11.20
2018-12-31T18:06:33.822Z,11.20
2018-12-31T18:09:10.926Z,11.20
2018-12-31T18:11:43.662Z,11.30
2018-12-31T18:14:13.951Z,11.30
2018-12-31T18:16:44.267Z,11.30
2018-12-31T18:19:14.581Z,11.20
2018-12-31T18:21:44.826Z,11.10
2018-12-31T18:24:15.275Z,11.20
2018-12-31T18:26:45.677Z,11.20
2018-12-31T18:29:16.000Z,11.20
2018-12-31T18:31:51.962Z,11.10
2018-12-31T18:34:22.878Z,11.20
2018-12-31T18:36:53.511Z,11.10
2018-12-31T18:39:23.803Z,11.10
2018-12-31T18:41:54.150Z,11.00
2018-12-31T18:44:24.431Z,11.10
2018-12-31T18:46:54.769Z,11.20
2018-12-31T18:49:25.142Z,11.10
2018-12-31T18:51:55.513Z,11.10
2018-12-31T18:54:26.544Z,11.10
2018-12-31T18:56:56.847Z,11.10
2018-12-31T18:59:27.068Z,11.10
2018-12-31T19:01:57.331Z,11.20
2018-12-31T19:04:29.538Z,11.30
2018-12-31T19:06:59.935Z,11.30
2018-12-31T19:09:30.347Z,11.20
2018-12-31T19:12:00.620Z,11.20
2018-12-31T19:14:31.076Z,11.10
2018-12-31T19:17:03.085Z,11.20
2018-12-31T19:19:33.427Z,11.10
2018-12-31T19:22:03.761Z,11.20
2018-12-31T19:24:34.037Z,11.20
2018-12-31T19:27:04.372Z,11.10
2018-12-31T19:29:35.113Z,11.20
2018-12-31T19:32:05.386Z,11.20
2018-12-31T19:34:35.683Z,11.00
2018-12-31T19:37:06.017Z,11.00
2018-12-31T19:39:36.412Z,11.10
2018-12-31T19:42:06.676Z,11.20
2018-12-31T19:44:36.991Z,11.10
2018-12-31T19:47:07.272Z,11.10
2018-12-31T19:49:37.561Z,11.20
2018-12-31T19:52:07.851Z,11.20
2018-12-31T19:54:38.215Z,11.20
2018-12-31T19:57:08.519Z,11.10
2018-12-31T19:59:38.851Z,11.20
2018-12-31T20:02:09.151Z,11.30
2018-12-31T20:04:39.744Z,11.20
2018-12-31T20:07:10.089Z,11.20
2018-12-31T20:09:40.375Z,11.20
2018-12-31T20:12:10.675Z,11.30
2018-12-31T20:14:41.142Z,11.30
2018-12-31T20:17:11.477Z,11.30
2018-12-31T20:19:41.805Z,11.30
2018-12-31T20:22:12.094Z,11.20
2018-12-31T20:24:42.577Z,11.20
2018-12-31T20:27:12.921Z,11.30
2018-12-31T20:29:43.299Z,11.20
2018-12-31T20:32:13.551Z,11.20
2018-12-31T20:34:43.912Z,11.20
2018-12-31T20:37:14.308Z,11.10
2018-12-31T20:39:44.700Z,11.10
2018-12-31T20:42:14.995Z,11.00
2018-12-31T20:44:45.329Z,11.00
2018-12-31T20:47:15.711Z,11.10
2018-12-31T20:49:46.053Z,11.00
2018-12-31T20:52:16.351Z,11.00
2018-12-31T20:54:46.649Z,11.10
2018-12-31T20:57:16.941Z,11.00
2018-12-31T20:59:47.277Z,11.10
2018-12-31T21:02:17.569Z,11.00
2018-12-31T21:04:47.950Z,11.00
2018-12-31T21:07:18.687Z,11.00
2018-12-31T21:09:48.971Z,11.00
2018-12-31T21:12:19.284Z,10.70
2018-12-31T21:14:49.639Z,10.70
2018-12-31T21:17:20.485Z,10.70
2018-12-31T21:19:50.824Z,10.70
2018-12-31T21:22:21.083Z,10.70
2018-12-31T21:24:51.409Z,10.60
2018-12-31T21:27:21.805Z,10.50
2018-12-31T21:29:52.133Z,10.50
2018-12-31T21:32:22.517Z,10.60
2018-12-31T21:34:53.661Z,10.60
2018-12-31T21:37:26.865Z,10.60
2018-12-31T21:39:57.151Z,10.60
2018-12-31T21:42:27.670Z,10.50
2018-12-31T21:44:58.055Z,10.60
2018-12-31T21:47:30.883Z,10.70
2018-12-31T21:50:01.203Z,10.70
2018-12-31T21:52:31.689Z,10.60
2018-12-31T21:55:01.987Z,10.60
2018-12-31T21:57:32.345Z,10.60
2018-12-31T22:00:02.611Z,10.50
2018-12-31T22:02:32.937Z,10.60
2018-12-31T22:05:03.266Z,10.60
2018-12-31T22:07:33.607Z,10.60
2018-12-31T22:10:04.158Z,10.60
2018-12-31T22:12:34.443Z,10.70
2018-12-31T22:15:04.890Z,10.70
2018-12-31T22:17:35.391Z,10.60
2018-12-31T22:20:06.420Z,10.60
2018-12-31T22:22:36.779Z,10.60
2018-12-31T22:25:07.744Z,10.60
2018-12-31T22:27:38.199Z,10.70
2018-12-31T22:30:09.911Z,10.60
2018-12-31T22:32:40.208Z,10.60
2018-12-31T22:35:10.535Z,10.60
2018-12-31T22:37:40.835Z,10.50
2018-12-31T22:40:11.077Z,10.60
2018-12-31T22:42:41.499Z,10.60
2018-12-31T22:45:11.861Z,10.60
2018-12-31T22:47:42.205Z,10.50
2018-12-31T22:50:13.139Z,10.60
2018-12-31T22:52:43.439Z,10.50
2018-12-31T22:55:13.759Z,10.50
2018-12-31T22:57:44.175Z,10.40
2018-12-31T23:00:14.759Z,10.50
2018-12-31T23:02:45.159Z,10.60
2018-12-31T23:05:16.135Z,10.60
2018-12-31T23:07:46.427Z,10.60
2018-12-31T23:10:16.731Z,10.50
2018-12-31T23:12:47.384Z,10.40
2018-12-31T23:15:21.449Z,10.40
2018-12-31T23:17:52.317Z,10.50
2018-12-31T23:20:23.596Z,10.30
2018-12-31T23:22:54.093Z,10.30
2018-12-31T23:25:24.707Z,10.30
2018-12-31T23:27:54.978Z,10.40
2018-12-31T23:30:25.393Z,10.40
2018-12-31T23:32:55.698Z,10.20
2018-12-31T23:35:26.011Z,10.30
2018-12-31T23:37:56.347Z,10.30
2018-12-31T23:40:26.734Z,10.20
2018-12-31T23:42:57.027Z,10.20
2018-12-31T23:45:27.338Z,10.20
2018-12-31T23:47:58.037Z,10.10
2018-12-31T23:50:28.333Z,10.20
2018-12-31T23:52:58.606Z,10.20
2018-12-31T23:55:28.901Z,10.20
2018-12-31T23:57:59.198Z,10.20
